sensor_id;sensor_type;location;lat;lon;timestamp;temperature;humidity
55331;DHT22;58851;42.984;20.336;2023-05-16T00:00:18;384.00;128.00
55331;DHT22;58851;42.984;20.336;2023-05-16T00:02:44;359.30;128.00
55331;DHT22;58851;42.984;20.336;2023-05-16T00:05:10;359.30;128.00
55331;DHT22;58851;42.984;20.336;2023-05-16T00:07:42;384.00;128.00
55331;DHT22;58851;42.984;20.336;2023-05-16T00:10:09;384.00;128.00
55331;DHT22;58851;42.984;20.336;2023-05-16T00:12:35;384.00;128.00
55331;DHT22;58851;42.984;20.336;2023-05-16T00:15:10;359.20;128.00
55331;DHT22;58851;42.984;20.336;2023-05-16T00:17:45;359.10;128.00
55331;DHT22;58851;42.984;20.336;2023-05-16T00:20:19;359.10;128.00
55331;DHT22;58851;42.984;20.336;2023-05-16T00:22:48;359.20;128.00
55331;DHT22;58851;42.984;20.336;2023-05-16T00:25:14;359.20;128.00
55331;DHT22;58851;42.984;20.336;2023-05-16T00:27:40;359.20;128.00
55331;DHT22;58851;42.984;20.336;2023-05-16T00:30:06;359.20;128.00
55331;DHT22;58851;42.984;20.336;2023-05-16T00:32:32;359.20;128.00
55331;DHT22;58851;42.984;20.336;2023-05-16T00:34:58;359.20;128.00
55331;DHT22;58851;42.984;20.336;2023-05-16T00:37:24;359.20;128.00
55331;DHT22;58851;42.984;20.336;2023-05-16T00:39:50;359.20;128.00
55331;DHT22;58851;42.984;20.336;2023-05-16T00:42:18;359.20;128.00
55331;DHT22;58851;42.984;20.336;2023-05-16T00:44:45;359.10;128.00
55331;DHT22;58851;42.984;20.336;2023-05-16T00:47:11;359.10;128.00
55331;DHT22;58851;42.984;20.336;2023-05-16T00:49:37;359.00;128.00
55331;DHT22;58851;42.984;20.336;2023-05-16T00:52:03;358.90;128.00
55331;DHT22;58851;42.984;20.336;2023-05-16T00:54:30;359.00;128.00
55331;DHT22;58851;42.984;20.336;2023-05-16T00:56:56;359.00;128.00
55331;DHT22;58851;42.984;20.336;2023-05-16T00:59:25;359.00;128.00
55331;DHT22;58851;42.984;20.336;2023-05-16T01:01:51;358.80;128.00
55331;DHT22;58851;42.984;20.336;2023-05-16T01:04:17;358.90;128.00
55331;DHT22;58851;42.984;20.336;2023-05-16T01:06:44;358.90;128.00
55331;DHT22;58851;42.984;20.336;2023-05-16T01:09:10;358.80;128.00
55331;DHT22;58851;42.984;20.336;2023-05-16T01:17:53;358.80;128.00
55331;DHT22;58851;42.984;20.336;2023-05-16T01:20:08;358.90;128.00
55331;DHT22;58851;42.984;20.336;2023-05-16T01:27:42;358.80;128.00
55331;DHT22;58851;42.984;20.336;2023-05-16T01:30:14;358.80;128.00
55331;DHT22;58851;42.984;20.336;2023-05-16T01:32:41;358.90;128.00
55331;DHT22;58851;42.984;20.336;2023-05-16T01:35:08;358.80;128.00
55331;DHT22;58851;42.984;20.336;2023-05-16T01:37:58;358.80;128.00
55331;DHT22;58851;42.984;20.336;2023-05-16T01:40:58;358.80;128.00
55331;DHT22;58851;42.984;20.336;2023-05-16T01:43:36;358.90;128.00
55331;DHT22;58851;42.984;20.336;2023-05-16T01:46:14;358.80;128.00
55331;DHT22;58851;42.984;20.336;2023-05-16T01:49:04;358.90;128.00
55331;DHT22;58851;42.984;20.336;2023-05-16T01:51:34;358.80;128.00
55331;DHT22;58851;42.984;20.336;2023-05-16T01:54:05;358.60;128.00
55331;DHT22;58851;42.984;20.336;2023-05-16T01:56:33;358.60;128.00
55331;DHT22;58851;42.984;20.336;2023-05-16T01:59:00;358.50;128.00
55331;DHT22;58851;42.984;20.336;2023-05-16T02:01:26;358.60;128.00
55331;DHT22;58851;42.984;20.336;2023-05-16T02:03:54;358.70;128.00
55331;DHT22;58851;42.984;20.336;2023-05-16T02:06:21;358.80;128.00
55331;DHT22;58851;42.984;20.336;2023-05-16T02:08:47;358.60;128.00
55331;DHT22;58851;42.984;20.336;2023-05-16T02:11:13;358.60;128.00
55331;DHT22;58851;42.984;20.336;2023-05-16T02:13:39;358.60;128.00
55331;DHT22;58851;42.984;20.336;2023-05-16T02:16:05;358.60;128.00
55331;DHT22;58851;42.984;20.336;2023-05-16T02:18:31;358.50;128.00
55331;DHT22;58851;42.984;20.336;2023-05-16T02:20:57;358.40;153.60
55331;DHT22;58851;42.984;20.336;2023-05-16T02:23:23;358.40;128.00
55331;DHT22;58851;42.984;20.336;2023-05-16T02:25:48;358.50;128.00
55331;DHT22;58851;42.984;20.336;2023-05-16T02:28:14;358.50;128.00
55331;DHT22;58851;42.984;20.336;2023-05-16T02:30:40;358.50;128.00
55331;DHT22;58851;42.984;20.336;2023-05-16T02:33:06;358.50;128.00
55331;DHT22;58851;42.984;20.336;2023-05-16T02:35:32;358.60;128.00
55331;DHT22;58851;42.984;20.336;2023-05-16T02:37:57;358.60;128.00
55331;DHT22;58851;42.984;20.336;2023-05-16T02:40:23;358.60;128.00
55331;DHT22;58851;42.984;20.336;2023-05-16T02:42:49;358.60;128.00
55331;DHT22;58851;42.984;20.336;2023-05-16T02:45:15;358.60;128.00
55331;DHT22;58851;42.984;20.336;2023-05-16T02:47:41;358.70;128.00
55331;DHT22;58851;42.984;20.336;2023-05-16T02:50:07;358.80;128.00
55331;DHT22;58851;42.984;20.336;2023-05-16T02:52:33;358.80;128.00
55331;DHT22;58851;42.984;20.336;2023-05-16T02:54:59;358.70;128.00
55331;DHT22;58851;42.984;20.336;2023-05-16T02:57:25;358.60;128.00
55331;DHT22;58851;42.984;20.336;2023-05-16T02:59:50;358.50;128.00
55331;DHT22;58851;42.984;20.336;2023-05-16T03:02:16;358.60;128.00
55331;DHT22;58851;42.984;20.336;2023-05-16T03:04:42;358.60;128.00
55331;DHT22;58851;42.984;20.336;2023-05-16T03:07:08;358.50;128.00
55331;DHT22;58851;42.984;20.336;2023-05-16T03:09:33;358.50;128.00
55331;DHT22;58851;42.984;20.336;2023-05-16T03:11:59;358.50;128.00
55331;DHT22;58851;42.984;20.336;2023-05-16T03:14:26;358.40;204.80
55331;DHT22;58851;42.984;20.336;2023-05-16T03:16:51;358.40;537.60
55331;DHT22;58851;42.984;20.336;2023-05-16T03:19:17;358.40;563.20
55331;DHT22;58851;42.984;20.336;2023-05-16T03:21:43;358.40;486.40
55331;DHT22;58851;42.984;20.336;2023-05-16T03:24:10;358.40;409.60
55331;DHT22;58851;42.984;20.336;2023-05-16T03:26:36;358.60;128.00
55331;DHT22;58851;42.984;20.336;2023-05-16T03:29:01;358.50;409.60
55331;DHT22;58851;42.984;20.336;2023-05-16T03:31:27;358.60;128.00
55331;DHT22;58851;42.984;20.336;2023-05-16T03:33:53;358.70;128.00
55331;DHT22;58851;42.984;20.336;2023-05-16T03:36:20;358.70;128.00
55331;DHT22;58851;42.984;20.336;2023-05-16T03:38:46;358.60;128.00
55331;DHT22;58851;42.984;20.336;2023-05-16T03:41:12;358.70;128.00
55331;DHT22;58851;42.984;20.336;2023-05-16T03:43:38;358.70;128.00
55331;DHT22;58851;42.984;20.336;2023-05-16T03:46:04;358.70;128.00
55331;DHT22;58851;42.984;20.336;2023-05-16T03:48:30;358.70;128.00
55331;DHT22;58851;42.984;20.336;2023-05-16T03:50:56;358.80;128.00
55331;DHT22;58851;42.984;20.336;2023-05-16T03:53:21;358.80;128.00
55331;DHT22;58851;42.984;20.336;2023-05-16T03:55:47;358.80;128.00
55331;DHT22;58851;42.984;20.336;2023-05-16T03:58:13;358.90;128.00
55331;DHT22;58851;42.984;20.336;2023-05-16T04:00:39;358.90;128.00
55331;DHT22;58851;42.984;20.336;2023-05-16T04:03:05;358.90;128.00
55331;DHT22;58851;42.984;20.336;2023-05-16T04:05:31;358.90;128.00
55331;DHT22;58851;42.984;20.336;2023-05-16T04:07:56;359.00;128.00
55331;DHT22;58851;42.984;20.336;2023-05-16T04:10:23;359.00;128.00
55331;DHT22;58851;42.984;20.336;2023-05-16T04:12:49;359.10;128.00
55331;DHT22;58851;42.984;20.336;2023-05-16T04:15:14;359.10;128.00
55331;DHT22;58851;42.984;20.336;2023-05-16T04:17:40;359.10;128.00
55331;DHT22;58851;42.984;20.336;2023-05-16T04:20:06;359.20;128.00
55331;DHT22;58851;42.984;20.336;2023-05-16T04:22:32;359.30;128.00
55331;DHT22;58851;42.984;20.336;2023-05-16T04:24:58;384.00;128.00
55331;DHT22;58851;42.984;20.336;2023-05-16T04:27:24;384.10;128.00
55331;DHT22;58851;42.984;20.336;2023-05-16T04:29:51;384.10;128.00
55331;DHT22;58851;42.984;20.336;2023-05-16T04:32:17;384.20;128.00
55331;DHT22;58851;42.984;20.336;2023-05-16T04:34:44;384.20;128.00
55331;DHT22;58851;42.984;20.336;2023-05-16T04:37:11;384.30;128.00
55331;DHT22;58851;42.984;20.336;2023-05-16T04:39:37;384.30;128.00
55331;DHT22;58851;42.984;20.336;2023-05-16T04:42:03;384.30;128.00
55331;DHT22;58851;42.984;20.336;2023-05-16T04:44:29;384.40;128.00
55331;DHT22;58851;42.984;20.336;2023-05-16T04:46:55;384.50;128.00
55331;DHT22;58851;42.984;20.336;2023-05-16T04:49:21;384.50;128.00
55331;DHT22;58851;42.984;20.336;2023-05-16T04:51:47;384.60;128.00
55331;DHT22;58851;42.984;20.336;2023-05-16T04:54:13;384.70;128.00
55331;DHT22;58851;42.984;20.336;2023-05-16T04:56:39;384.70;128.00
55331;DHT22;58851;42.984;20.336;2023-05-16T04:59:05;384.80;128.00
55331;DHT22;58851;42.984;20.336;2023-05-16T05:01:31;384.90;128.00
55331;DHT22;58851;42.984;20.336;2023-05-16T05:03:57;384.90;640.00
55331;DHT22;58851;42.984;20.336;2023-05-16T05:06:22;409.60;128.00
55331;DHT22;58851;42.984;20.336;2023-05-16T05:08:48;409.60;128.00
55331;DHT22;58851;42.984;20.336;2023-05-16T05:11:14;409.80;128.00
55331;DHT22;58851;42.984;20.336;2023-05-16T05:13:40;409.80;128.00
55331;DHT22;58851;42.984;20.336;2023-05-16T05:16:06;409.90;128.00
55331;DHT22;58851;42.984;20.336;2023-05-16T05:18:32;409.90;256.00
55331;DHT22;58851;42.984;20.336;2023-05-16T05:20:58;409.90;128.00
55331;DHT22;58851;42.984;20.336;2023-05-16T05:23:24;410.00;128.00
55331;DHT22;58851;42.984;20.336;2023-05-16T05:25:50;410.10;128.00
55331;DHT22;58851;42.984;20.336;2023-05-16T05:28:16;410.10;332.80
55331;DHT22;58851;42.984;20.336;2023-05-16T05:30:42;410.10;128.00
55331;DHT22;58851;42.984;20.336;2023-05-16T05:33:10;410.10;128.00
55331;DHT22;58851;42.984;20.336;2023-05-16T05:35:36;410.20;128.00
55331;DHT22;58851;42.984;20.336;2023-05-16T05:38:02;410.30;128.00
55331;DHT22;58851;42.984;20.336;2023-05-16T05:40:28;410.30;128.00
55331;DHT22;58851;42.984;20.336;2023-05-16T05:42:54;410.40;128.00
55331;DHT22;58851;42.984;20.336;2023-05-16T05:45:20;410.50;332.80
55331;DHT22;58851;42.984;20.336;2023-05-16T05:47:46;435.20;307.20
55331;DHT22;58851;42.984;20.336;2023-05-16T05:50:12;435.30;128.00
55331;DHT22;58851;42.984;20.336;2023-05-16T05:52:39;435.30;128.00
55331;DHT22;58851;42.984;20.336;2023-05-16T05:55:05;435.30;128.00
55331;DHT22;58851;42.984;20.336;2023-05-16T05:57:31;435.40;128.00
55331;DHT22;58851;42.984;20.336;2023-05-16T05:59:56;435.70;128.00
55331;DHT22;58851;42.984;20.336;2023-05-16T06:02:22;435.70;128.00
55331;DHT22;58851;42.984;20.336;2023-05-16T06:04:48;435.80;128.00
55331;DHT22;58851;42.984;20.336;2023-05-16T06:07:14;435.80;128.00
55331;DHT22;58851;42.984;20.336;2023-05-16T06:09:41;436.00;128.00
55331;DHT22;58851;42.984;20.336;2023-05-16T06:12:08;436.10;128.00
55331;DHT22;58851;42.984;20.336;2023-05-16T06:14:34;436.10;128.00
55331;DHT22;58851;42.984;20.336;2023-05-16T06:16:59;436.10;128.00
55331;DHT22;58851;42.984;20.336;2023-05-16T06:19:25;436.10;128.00
55331;DHT22;58851;42.984;20.336;2023-05-16T06:22:08;460.80;128.00
55331;DHT22;58851;42.984;20.336;2023-05-16T06:24:34;460.80;128.00
55331;DHT22;58851;42.984;20.336;2023-05-16T06:27:00;460.90;128.00
55331;DHT22;58851;42.984;20.336;2023-05-16T06:29:26;461.10;128.00
55331;DHT22;58851;42.984;20.336;2023-05-16T06:31:52;461.30;128.00
55331;DHT22;58851;42.984;20.336;2023-05-16T06:34:17;461.30;128.00
55331;DHT22;58851;42.984;20.336;2023-05-16T06:36:43;461.40;128.00
55331;DHT22;58851;42.984;20.336;2023-05-16T06:39:09;461.50;128.00
55331;DHT22;58851;42.984;20.336;2023-05-16T06:41:35;461.60;128.00
55331;DHT22;58851;42.984;20.336;2023-05-16T06:44:01;461.70;128.00
55331;DHT22;58851;42.984;20.336;2023-05-16T06:46:26;461.70;128.00
55331;DHT22;58851;42.984;20.336;2023-05-16T06:48:52;486.40;128.00
55331;DHT22;58851;42.984;20.336;2023-05-16T06:51:18;486.60;128.00
55331;DHT22;58851;42.984;20.336;2023-05-16T06:53:43;486.60;128.00
55331;DHT22;58851;42.984;20.336;2023-05-16T06:56:09;486.80;128.00
55331;DHT22;58851;42.984;20.336;2023-05-16T06:58:35;486.90;128.00
55331;DHT22;58851;42.984;20.336;2023-05-16T07:01:01;487.00;128.00
55331;DHT22;58851;42.984;20.336;2023-05-16T07:03:27;487.00;128.00
55331;DHT22;58851;42.984;20.336;2023-05-16T07:05:53;487.10;128.00
55331;DHT22;58851;42.984;20.336;2023-05-16T07:08:19;487.20;128.00
55331;DHT22;58851;42.984;20.336;2023-05-16T07:10:45;487.30;128.00
55331;DHT22;58851;42.984;20.336;2023-05-16T07:13:11;487.30;128.00
55331;DHT22;58851;42.984;20.336;2023-05-16T07:15:36;512.10;128.00
55331;DHT22;58851;42.984;20.336;2023-05-16T07:18:02;512.50;128.00
55331;DHT22;58851;42.984;20.336;2023-05-16T07:20:28;512.60;128.00
55331;DHT22;58851;42.984;20.336;2023-05-16T07:22:54;512.40;128.00
55331;DHT22;58851;42.984;20.336;2023-05-16T07:25:22;512.30;128.00
55331;DHT22;58851;42.984;20.336;2023-05-16T07:27:48;512.20;128.00
55331;DHT22;58851;42.984;20.336;2023-05-16T07:30:15;512.10;128.00
55331;DHT22;58851;42.984;20.336;2023-05-16T07:32:41;487.10;128.00
55331;DHT22;58851;42.984;20.336;2023-05-16T07:35:08;486.80;128.00
55331;DHT22;58851;42.984;20.336;2023-05-16T07:37:34;486.60;128.00
55331;DHT22;58851;42.984;20.336;2023-05-16T07:40:00;486.40;128.00
55331;DHT22;58851;42.984;20.336;2023-05-16T07:42:28;461.40;128.00
55331;DHT22;58851;42.984;20.336;2023-05-16T07:44:53;461.10;128.00
55331;DHT22;58851;42.984;20.336;2023-05-16T07:47:19;461.00;128.00
55331;DHT22;58851;42.984;20.336;2023-05-16T07:49:45;461.10;128.00
55331;DHT22;58851;42.984;20.336;2023-05-16T07:52:11;461.00;128.00
55331;DHT22;58851;42.984;20.336;2023-05-16T07:54:37;461.10;128.00
55331;DHT22;58851;42.984;20.336;2023-05-16T07:57:03;461.20;128.00
55331;DHT22;58851;42.984;20.336;2023-05-16T07:59:29;461.10;128.00
55331;DHT22;58851;42.984;20.336;2023-05-16T08:01:54;461.10;128.00
55331;DHT22;58851;42.984;20.336;2023-05-16T08:04:20;461.10;128.00
55331;DHT22;58851;42.984;20.336;2023-05-16T08:06:46;460.90;128.00
55331;DHT22;58851;42.984;20.336;2023-05-16T08:09:12;460.80;128.00
55331;DHT22;58851;42.984;20.336;2023-05-16T08:11:38;436.00;128.00
55331;DHT22;58851;42.984;20.336;2023-05-16T08:14:05;435.90;128.00
55331;DHT22;58851;42.984;20.336;2023-05-16T08:16:31;435.80;128.00
55331;DHT22;58851;42.984;20.336;2023-05-16T08:18:57;435.80;128.00
55331;DHT22;58851;42.984;20.336;2023-05-16T08:21:23;435.90;128.00
55331;DHT22;58851;42.984;20.336;2023-05-16T08:23:49;435.80;128.00
55331;DHT22;58851;42.984;20.336;2023-05-16T08:26:15;435.90;128.00
55331;DHT22;58851;42.984;20.336;2023-05-16T08:28:42;435.90;128.00
55331;DHT22;58851;42.984;20.336;2023-05-16T08:31:07;435.80;128.00
55331;DHT22;58851;42.984;20.336;2023-05-16T08:33:33;435.80;128.00
55331;DHT22;58851;42.984;20.336;2023-05-16T08:35:59;435.80;128.00
55331;DHT22;58851;42.984;20.336;2023-05-16T08:38:25;435.70;230.40
55331;DHT22;58851;42.984;20.336;2023-05-16T08:40:51;435.70;640.00
55331;DHT22;58851;42.984;20.336;2023-05-16T08:43:17;435.70;512.00
55331;DHT22;58851;42.984;20.336;2023-05-16T08:45:44;435.80;128.00
55331;DHT22;58851;42.984;20.336;2023-05-16T08:48:10;435.70;588.80
55331;DHT22;58851;42.984;20.336;2023-05-16T08:50:36;435.70;128.00
55331;DHT22;58851;42.984;20.336;2023-05-16T08:53:07;435.80;537.60
55331;DHT22;58851;42.984;20.336;2023-05-16T08:55:35;435.80;128.00
55331;DHT22;58851;42.984;20.336;2023-05-16T08:58:01;435.80;128.00
55331;DHT22;58851;42.984;20.336;2023-05-16T09:00:28;435.80;128.00
55331;DHT22;58851;42.984;20.336;2023-05-16T09:02:54;435.80;128.00
55331;DHT22;58851;42.984;20.336;2023-05-16T09:05:21;435.70;128.00
55331;DHT22;58851;42.984;20.336;2023-05-16T09:07:47;435.60;128.00
55331;DHT22;58851;42.984;20.336;2023-05-16T09:10:13;435.70;128.00
55331;DHT22;58851;42.984;20.336;2023-05-16T09:12:40;435.70;128.00
55331;DHT22;58851;42.984;20.336;2023-05-16T09:15:07;435.80;128.00
55331;DHT22;58851;42.984;20.336;2023-05-16T09:17:42;435.70;128.00
55331;DHT22;58851;42.984;20.336;2023-05-16T09:20:11;435.50;128.00
55331;DHT22;58851;42.984;20.336;2023-05-16T09:22:38;435.60;128.00
55331;DHT22;58851;42.984;20.336;2023-05-16T09:25:04;435.50;128.00
55331;DHT22;58851;42.984;20.336;2023-05-16T09:27:31;435.30;128.00
55331;DHT22;58851;42.984;20.336;2023-05-16T09:29:57;435.20;128.00
55331;DHT22;58851;42.984;20.336;2023-05-16T09:32:24;410.50;128.00
55331;DHT22;58851;42.984;20.336;2023-05-16T09:34:52;410.50;128.00
55331;DHT22;58851;42.984;20.336;2023-05-16T09:37:19;435.20;128.00
55331;DHT22;58851;42.984;20.336;2023-05-16T09:39:52;435.30;128.00
55331;DHT22;58851;42.984;20.336;2023-05-16T09:42:22;435.20;128.00
55331;DHT22;58851;42.984;20.336;2023-05-16T09:44:52;410.50;128.00
55331;DHT22;58851;42.984;20.336;2023-05-16T09:47:19;410.30;128.00
55331;DHT22;58851;42.984;20.336;2023-05-16T09:49:47;410.40;128.00
55331;DHT22;58851;42.984;20.336;2023-05-16T09:52:16;410.50;128.00
55331;DHT22;58851;42.984;20.336;2023-05-16T09:54:42;435.30;128.00
55331;DHT22;58851;42.984;20.336;2023-05-16T09:57:08;435.20;128.00
55331;DHT22;58851;42.984;20.336;2023-05-16T09:59:36;435.20;128.00
55331;DHT22;58851;42.984;20.336;2023-05-16T10:02:02;410.50;537.60
55331;DHT22;58851;42.984;20.336;2023-05-16T10:04:30;435.20;409.60
55331;DHT22;58851;42.984;20.336;2023-05-16T10:06:56;435.30;409.60
55331;DHT22;58851;42.984;20.336;2023-05-16T10:09:24;435.40;128.00
55331;DHT22;58851;42.984;20.336;2023-05-16T10:11:51;435.40;204.80
55331;DHT22;58851;42.984;20.336;2023-05-16T10:14:18;435.50;128.00
55331;DHT22;58851;42.984;20.336;2023-05-16T10:16:46;435.70;128.00
55331;DHT22;58851;42.984;20.336;2023-05-16T10:19:20;435.70;128.00
55331;DHT22;58851;42.984;20.336;2023-05-16T10:21:51;435.70;409.60
55331;DHT22;58851;42.984;20.336;2023-05-16T10:24:24;435.80;128.00
55331;DHT22;58851;42.984;20.336;2023-05-16T10:26:52;435.90;128.00
55331;DHT22;58851;42.984;20.336;2023-05-16T10:29:18;435.60;128.00
55331;DHT22;58851;42.984;20.336;2023-05-16T10:31:45;435.50;128.00
55331;DHT22;58851;42.984;20.336;2023-05-16T10:34:13;435.40;128.00
55331;DHT22;58851;42.984;20.336;2023-05-16T10:36:39;435.30;307.20
55331;DHT22;58851;42.984;20.336;2023-05-16T10:39:05;435.40;614.40
55331;DHT22;58851;42.984;20.336;2023-05-16T10:41:33;435.50;128.00
55331;DHT22;58851;42.984;20.336;2023-05-16T10:43:59;435.50;128.00
55331;DHT22;58851;42.984;20.336;2023-05-16T10:46:26;435.60;128.00
55331;DHT22;58851;42.984;20.336;2023-05-16T10:48:54;435.80;128.00
55331;DHT22;58851;42.984;20.336;2023-05-16T10:51:33;460.90;128.00
55331;DHT22;58851;42.984;20.336;2023-05-16T10:54:05;461.40;153.60
55331;DHT22;58851;42.984;20.336;2023-05-16T10:56:32;486.40;332.80
55331;DHT22;58851;42.984;20.336;2023-05-16T10:58:59;486.70;128.00
55331;DHT22;58851;42.984;20.336;2023-05-16T11:01:32;486.90;128.00
55331;DHT22;58851;42.984;20.336;2023-05-16T11:04:03;486.90;128.00
55331;DHT22;58851;42.984;20.336;2023-05-16T11:06:43;486.80;409.60
55331;DHT22;58851;42.984;20.336;2023-05-16T11:12:08;486.50;128.00
55331;DHT22;58851;42.984;20.336;2023-05-16T11:14:41;486.40;128.00
55331;DHT22;58851;42.984;20.336;2023-05-16T11:17:38;461.70;128.00
55331;DHT22;58851;42.984;20.336;2023-05-16T11:20:05;461.60;128.00
55331;DHT22;58851;42.984;20.336;2023-05-16T11:22:38;461.40;128.00
55331;DHT22;58851;42.984;20.336;2023-05-16T11:25:08;461.30;128.00
55331;DHT22;58851;42.984;20.336;2023-05-16T11:32:36;461.30;128.00
55331;DHT22;58851;42.984;20.336;2023-05-16T11:35:03;461.10;128.00
55331;DHT22;58851;42.984;20.336;2023-05-16T11:37:29;460.90;128.00
55331;DHT22;58851;42.984;20.336;2023-05-16T11:40:02;460.90;128.00
55331;DHT22;58851;42.984;20.336;2023-05-16T11:42:34;461.00;128.00
55331;DHT22;58851;42.984;20.336;2023-05-16T11:45:08;460.80;128.00
55331;DHT22;58851;42.984;20.336;2023-05-16T11:47:38;436.10;128.00
55331;DHT22;58851;42.984;20.336;2023-05-16T11:50:06;460.90;128.00
55331;DHT22;58851;42.984;20.336;2023-05-16T11:52:36;461.00;128.00
55331;DHT22;58851;42.984;20.336;2023-05-16T11:55:04;461.10;128.00
55331;DHT22;58851;42.984;20.336;2023-05-16T11:57:32;461.10;128.00
55331;DHT22;58851;42.984;20.336;2023-05-16T12:00:02;461.20;128.00
55331;DHT22;58851;42.984;20.336;2023-05-16T12:02:31;461.30;128.00
55331;DHT22;58851;42.984;20.336;2023-05-16T12:04:57;461.40;128.00
55331;DHT22;58851;42.984;20.336;2023-05-16T12:07:27;461.40;128.00
55331;DHT22;58851;42.984;20.336;2023-05-16T12:09:53;461.50;128.00
55331;DHT22;58851;42.984;20.336;2023-05-16T12:12:22;461.50;128.00
55331;DHT22;58851;42.984;20.336;2023-05-16T12:14:48;461.50;128.00
55331;DHT22;58851;42.984;20.336;2023-05-16T12:17:14;461.60;128.00
55331;DHT22;58851;42.984;20.336;2023-05-16T12:19:41;461.60;128.00
55331;DHT22;58851;42.984;20.336;2023-05-16T12:22:15;461.50;128.00
55331;DHT22;58851;42.984;20.336;2023-05-16T12:24:42;461.40;128.00
55331;DHT22;58851;42.984;20.336;2023-05-16T12:27:08;461.40;128.00
55331;DHT22;58851;42.984;20.336;2023-05-16T12:29:34;461.40;128.00
55331;DHT22;58851;42.984;20.336;2023-05-16T12:32:00;461.50;128.00
55331;DHT22;58851;42.984;20.336;2023-05-16T12:34:28;461.50;128.00
55331;DHT22;58851;42.984;20.336;2023-05-16T12:36:54;461.60;128.00
55331;DHT22;58851;42.984;20.336;2023-05-16T12:39:21;486.50;128.00
55331;DHT22;58851;42.984;20.336;2023-05-16T12:41:50;486.60;128.00
55331;DHT22;58851;42.984;20.336;2023-05-16T12:44:17;486.50;128.00
55331;DHT22;58851;42.984;20.336;2023-05-16T12:46:49;486.40;128.00
55331;DHT22;58851;42.984;20.336;2023-05-16T12:49:22;486.50;128.00
55331;DHT22;58851;42.984;20.336;2023-05-16T12:51:53;486.60;128.00
55331;DHT22;58851;42.984;20.336;2023-05-16T12:54:19;486.80;128.00
55331;DHT22;58851;42.984;20.336;2023-05-16T12:56:47;487.20;128.00
55331;DHT22;58851;42.984;20.336;2023-05-16T12:59:14;487.00;128.00
55331;DHT22;58851;42.984;20.336;2023-05-16T13:01:40;487.20;128.00
55331;DHT22;58851;42.984;20.336;2023-05-16T13:04:07;487.20;128.00
55331;DHT22;58851;42.984;20.336;2023-05-16T13:06:33;512.20;128.00
55331;DHT22;58851;42.984;20.336;2023-05-16T13:08:59;512.60;128.00
55331;DHT22;58851;42.984;20.336;2023-05-16T13:11:25;512.70;128.00
55331;DHT22;58851;42.984;20.336;2023-05-16T13:13:51;512.80;128.00
55331;DHT22;58851;42.984;20.336;2023-05-16T13:16:17;512.70;128.00
55331;DHT22;58851;42.984;20.336;2023-05-16T13:18:44;537.60;128.00
55331;DHT22;58851;42.984;20.336;2023-05-16T13:21:10;537.80;128.00
55331;DHT22;58851;42.984;20.336;2023-05-16T13:23:37;537.60;128.00
55331;DHT22;58851;42.984;20.336;2023-05-16T13:26:03;537.70;128.00
55331;DHT22;58851;42.984;20.336;2023-05-16T13:28:29;537.80;128.00
55331;DHT22;58851;42.984;20.336;2023-05-16T13:30:56;512.90;128.00
55331;DHT22;58851;42.984;20.336;2023-05-16T13:33:23;512.60;128.00
55331;DHT22;58851;42.984;20.336;2023-05-16T13:35:49;512.60;128.00
55331;DHT22;58851;42.984;20.336;2023-05-16T13:38:16;512.60;128.00
55331;DHT22;58851;42.984;20.336;2023-05-16T13:40:41;512.30;128.00
55331;DHT22;58851;42.984;20.336;2023-05-16T13:43:07;512.20;128.00
55331;DHT22;58851;42.984;20.336;2023-05-16T13:45:33;512.10;128.00
55331;DHT22;58851;42.984;20.336;2023-05-16T13:47:59;512.00;128.00
55331;DHT22;58851;42.984;20.336;2023-05-16T13:50:26;512.10;128.00
55331;DHT22;58851;42.984;20.336;2023-05-16T13:52:52;487.30;128.00
55331;DHT22;58851;42.984;20.336;2023-05-16T13:55:17;512.40;128.00
55331;DHT22;58851;42.984;20.336;2023-05-16T13:57:43;537.60;128.00
55331;DHT22;58851;42.984;20.336;2023-05-16T14:00:09;537.60;128.00
55331;DHT22;58851;42.984;20.336;2023-05-16T14:02:40;512.50;128.00
55331;DHT22;58851;42.984;20.336;2023-05-16T14:05:06;512.40;128.00
55331;DHT22;58851;42.984;20.336;2023-05-16T14:07:32;487.30;128.00
55331;DHT22;58851;42.984;20.336;2023-05-16T14:09:58;487.00;128.00
55331;DHT22;58851;42.984;20.336;2023-05-16T14:12:24;486.90;128.00
55331;DHT22;58851;42.984;20.336;2023-05-16T14:14:49;486.80;128.00
55331;DHT22;58851;42.984;20.336;2023-05-16T14:17:15;486.90;128.00
55331;DHT22;58851;42.984;20.336;2023-05-16T14:19:41;486.90;128.00
55331;DHT22;58851;42.984;20.336;2023-05-16T14:22:07;486.90;128.00
55331;DHT22;58851;42.984;20.336;2023-05-16T14:24:33;486.80;128.00
55331;DHT22;58851;42.984;20.336;2023-05-16T14:26:59;486.90;128.00
55331;DHT22;58851;42.984;20.336;2023-05-16T14:29:25;486.70;128.00
55331;DHT22;58851;42.984;20.336;2023-05-16T14:31:51;486.90;128.00
55331;DHT22;58851;42.984;20.336;2023-05-16T14:34:17;486.90;128.00
55331;DHT22;58851;42.984;20.336;2023-05-16T14:36:43;486.90;128.00
55331;DHT22;58851;42.984;20.336;2023-05-16T14:39:09;487.10;128.00
55331;DHT22;58851;42.984;20.336;2023-05-16T14:41:35;487.00;128.00
55331;DHT22;58851;42.984;20.336;2023-05-16T14:44:01;486.90;128.00
55331;DHT22;58851;42.984;20.336;2023-05-16T14:46:27;486.80;128.00
55331;DHT22;58851;42.984;20.336;2023-05-16T14:48:52;486.90;128.00
55331;DHT22;58851;42.984;20.336;2023-05-16T14:51:18;486.80;128.00
55331;DHT22;58851;42.984;20.336;2023-05-16T14:53:44;487.20;128.00
55331;DHT22;58851;42.984;20.336;2023-05-16T14:56:10;487.20;128.00
55331;DHT22;58851;42.984;20.336;2023-05-16T14:58:36;512.00;128.00
55331;DHT22;58851;42.984;20.336;2023-05-16T15:01:02;512.10;128.00
55331;DHT22;58851;42.984;20.336;2023-05-16T15:03:28;512.20;128.00
55331;DHT22;58851;42.984;20.336;2023-05-16T15:05:56;512.40;128.00